Terminal Aerodrome Forecast
Issued by NWS Knoxville/Tri Cities, TN

Current Version | Previous Version | Text Only | Print | Product List | Glossary On
Versions: 1 2 3 4 5 6 7 8 9 10 11 12 13 14 15 16 17 18 19 20 21 22 23 24
000
FTUS44 KMRX 281127
TAFTYS
TAF
KTYS 281127Z 2812/2912 04005KT P6SM FEW030 SCT080
     FM281400 06004KT P6SM SCT050
     FM290200 14003KT P6SM SCT070
     FM290800 04003KT 6SM BR FEW060 SCT120=

USA.gov is the U.S. government's official web portal to all federal, state and local government web resources and services.